sensor_id;sensor_type;location;lat;lon;timestamp;temperature;humidity
9095;DHT22;4583;49.796;9.902;2022-12-31T00:05:11;13.20;99.90
9095;DHT22;4583;49.796;9.902;2022-12-31T00:15:14;13.10;99.90
9095;DHT22;4583;49.796;9.902;2022-12-31T00:25:15;13.20;99.90
9095;DHT22;4583;49.796;9.902;2022-12-31T00:35:17;13.20;99.90
9095;DHT22;4583;49.796;9.902;2022-12-31T00:45:19;13.30;99.90
9095;DHT22;4583;49.796;9.902;2022-12-31T00:55:20;13.30;99.90
9095;DHT22;4583;49.796;9.902;2022-12-31T01:05:22;13.30;99.90
9095;DHT22;4583;49.796;9.902;2022-12-31T01:15:24;13.30;99.90
9095;DHT22;4583;49.796;9.902;2022-12-31T01:25:25;13.30;99.90
9095;DHT22;4583;49.796;9.902;2022-12-31T01:35:27;13.40;99.90
9095;DHT22;4583;49.796;9.902;2022-12-31T01:45:29;13.40;99.90
9095;DHT22;4583;49.796;9.902;2022-12-31T01:55:34;13.50;99.90
9095;DHT22;4583;49.796;9.902;2022-12-31T02:05:53;13.50;99.90
9095;DHT22;4583;49.796;9.902;2022-12-31T02:36:29;13.80;99.90
9095;DHT22;4583;49.796;9.902;2022-12-31T02:46:44;13.90;99.90
9095;DHT22;4583;49.796;9.902;2022-12-31T02:57:18;14.00;99.90
9095;DHT22;4583;49.796;9.902;2022-12-31T03:07:23;14.10;99.90
9095;DHT22;4583;49.796;9.902;2022-12-31T03:17:25;14.10;99.90
9095;DHT22;4583;49.796;9.902;2022-12-31T03:27:27;14.10;99.90
9095;DHT22;4583;49.796;9.902;2022-12-31T03:37:28;14.10;99.90
9095;DHT22;4583;49.796;9.902;2022-12-31T03:47:30;14.20;99.90
9095;DHT22;4583;49.796;9.902;2022-12-31T03:57:32;14.20;99.90
9095;DHT22;4583;49.796;9.902;2022-12-31T04:07:34;14.30;99.90
9095;DHT22;4583;49.796;9.902;2022-12-31T04:17:35;14.40;99.90
9095;DHT22;4583;49.796;9.902;2022-12-31T04:27:38;14.50;99.90
9095;DHT22;4583;49.796;9.902;2022-12-31T04:37:40;14.50;99.90
9095;DHT22;4583;49.796;9.902;2022-12-31T04:47:42;14.50;99.90
9095;DHT22;4583;49.796;9.902;2022-12-31T04:57:44;14.60;99.90
9095;DHT22;4583;49.796;9.902;2022-12-31T05:07:45;14.70;99.90
9095;DHT22;4583;49.796;9.902;2022-12-31T05:17:47;14.70;99.90
9095;DHT22;4583;49.796;9.902;2022-12-31T05:27:48;14.90;99.90
9095;DHT22;4583;49.796;9.902;2022-12-31T05:37:50;15.00;99.90
9095;DHT22;4583;49.796;9.902;2022-12-31T05:47:52;15.00;99.90
9095;DHT22;4583;49.796;9.902;2022-12-31T05:57:53;15.00;99.90
9095;DHT22;4583;49.796;9.902;2022-12-31T06:07:55;15.10;99.90
9095;DHT22;4583;49.796;9.902;2022-12-31T06:17:57;15.20;99.90
9095;DHT22;4583;49.796;9.902;2022-12-31T06:27:59;15.20;99.90
9095;DHT22;4583;49.796;9.902;2022-12-31T06:38:00;15.30;99.90
9095;DHT22;4583;49.796;9.902;2022-12-31T06:48:02;15.30;99.90
9095;DHT22;4583;49.796;9.902;2022-12-31T06:58:04;15.40;99.90
9095;DHT22;4583;49.796;9.902;2022-12-31T07:18:27;15.30;99.90
9095;DHT22;4583;49.796;9.902;2022-12-31T07:29:35;15.40;99.90
9095;DHT22;4583;49.796;9.902;2022-12-31T07:39:40;15.30;99.90
9095;DHT22;4583;49.796;9.902;2022-12-31T07:49:42;15.40;99.90
9095;DHT22;4583;49.796;9.902;2022-12-31T08:10:13;15.40;99.90
9095;DHT22;4583;49.796;9.902;2022-12-31T08:20:18;15.40;99.90
9095;DHT22;4583;49.796;9.902;2022-12-31T08:30:21;15.50;99.90
9095;DHT22;4583;49.796;9.902;2022-12-31T08:40:53;15.50;99.90
9095;DHT22;4583;49.796;9.902;2022-12-31T08:50:59;15.70;99.90
9095;DHT22;4583;49.796;9.902;2022-12-31T09:01:01;15.80;99.90
9095;DHT22;4583;49.796;9.902;2022-12-31T09:11:13;15.90;99.90
9095;DHT22;4583;49.796;9.902;2022-12-31T09:21:23;16.10;99.90
9095;DHT22;4583;49.796;9.902;2022-12-31T09:52:42;16.30;99.90
9095;DHT22;4583;49.796;9.902;2022-12-31T10:13:40;16.50;99.60
9095;DHT22;4583;49.796;9.902;2022-12-31T10:23:54;16.70;98.90
9095;DHT22;4583;49.796;9.902;2022-12-31T10:55:27;16.70;98.40
9095;DHT22;4583;49.796;9.902;2022-12-31T11:06:22;16.80;98.20
9095;DHT22;4583;49.796;9.902;2022-12-31T11:37:34;16.90;97.40
9095;DHT22;4583;49.796;9.902;2022-12-31T11:58:33;17.30;97.10
9095;DHT22;4583;49.796;9.902;2022-12-31T12:08:35;17.40;96.70
9095;DHT22;4583;49.796;9.902;2022-12-31T12:18:47;17.60;96.30
9095;DHT22;4583;49.796;9.902;2022-12-31T12:28:49;17.70;96.10
9095;DHT22;4583;49.796;9.902;2022-12-31T12:39:04;17.90;95.80
9095;DHT22;4583;49.796;9.902;2022-12-31T12:49:13;18.20;95.50
9095;DHT22;4583;49.796;9.902;2022-12-31T13:20:19;18.30;94.40
9095;DHT22;4583;49.796;9.902;2022-12-31T13:30:34;18.30;94.30
9095;DHT22;4583;49.796;9.902;2022-12-31T13:40:47;18.20;94.00
9095;DHT22;4583;49.796;9.902;2022-12-31T13:51:00;18.10;93.50
9095;DHT22;4583;49.796;9.902;2022-12-31T14:01:18;18.10;93.20
9095;DHT22;4583;49.796;9.902;2022-12-31T14:22:00;18.00;92.70
9095;DHT22;4583;49.796;9.902;2022-12-31T14:32:22;17.80;92.70
9095;DHT22;4583;49.796;9.902;2022-12-31T14:42:51;17.80;93.90
9095;DHT22;4583;49.796;9.902;2022-12-31T15:03:06;17.30;94.40
9095;DHT22;4583;49.796;9.902;2022-12-31T15:23:43;17.00;92.80
9095;DHT22;4583;49.796;9.902;2022-12-31T15:34:04;17.00;93.10
9095;DHT22;4583;49.796;9.902;2022-12-31T15:54:46;16.70;93.50
9095;DHT22;4583;49.796;9.902;2022-12-31T16:04:49;16.60;93.60
9095;DHT22;4583;49.796;9.902;2022-12-31T16:14:54;16.30;93.80
9095;DHT22;4583;49.796;9.902;2022-12-31T16:24:58;16.00;94.10
9095;DHT22;4583;49.796;9.902;2022-12-31T16:35:25;15.80;94.80
9095;DHT22;4583;49.796;9.902;2022-12-31T16:45:33;15.50;95.20
9095;DHT22;4583;49.796;9.902;2022-12-31T16:55:35;15.20;95.70
9095;DHT22;4583;49.796;9.902;2022-12-31T17:15:58;14.80;96.70
9095;DHT22;4583;49.796;9.902;2022-12-31T17:26:12;14.60;97.10
9095;DHT22;4583;49.796;9.902;2022-12-31T17:36:23;14.30;97.50
9095;DHT22;4583;49.796;9.902;2022-12-31T17:46:25;14.30;97.80
9095;DHT22;4583;49.796;9.902;2022-12-31T17:56:27;14.10;98.10
9095;DHT22;4583;49.796;9.902;2022-12-31T18:06:28;14.00;98.50
9095;DHT22;4583;49.796;9.902;2022-12-31T18:16:30;13.90;98.70
9095;DHT22;4583;49.796;9.902;2022-12-31T18:26:32;13.70;99.00
9095;DHT22;4583;49.796;9.902;2022-12-31T18:36:35;13.60;99.10
9095;DHT22;4583;49.796;9.902;2022-12-31T18:46:36;13.60;99.40
9095;DHT22;4583;49.796;9.902;2022-12-31T18:56:38;13.60;99.60
9095;DHT22;4583;49.796;9.902;2022-12-31T19:06:47;13.50;99.70
9095;DHT22;4583;49.796;9.902;2022-12-31T19:16:50;13.40;99.80
9095;DHT22;4583;49.796;9.902;2022-12-31T19:26:53;13.20;99.70
9095;DHT22;4583;49.796;9.902;2022-12-31T19:36:55;13.20;99.90
9095;DHT22;4583;49.796;9.902;2022-12-31T19:46:56;13.20;99.90
9095;DHT22;4583;49.796;9.902;2022-12-31T19:56:58;13.20;99.90
9095;DHT22;4583;49.796;9.902;2022-12-31T20:07:00;13.10;99.90
9095;DHT22;4583;49.796;9.902;2022-12-31T20:17:01;13.10;99.90
9095;DHT22;4583;49.796;9.902;2022-12-31T20:27:03;13.10;99.90
9095;DHT22;4583;49.796;9.902;2022-12-31T20:37:05;13.20;99.90
9095;DHT22;4583;49.796;9.902;2022-12-31T20:47:06;13.10;99.90
9095;DHT22;4583;49.796;9.902;2022-12-31T20:57:08;13.10;99.90
9095;DHT22;4583;49.796;9.902;2022-12-31T21:07:10;13.00;99.90
9095;DHT22;4583;49.796;9.902;2022-12-31T21:17:11;13.00;99.90
9095;DHT22;4583;49.796;9.902;2022-12-31T21:27:13;12.90;99.90
9095;DHT22;4583;49.796;9.902;2022-12-31T21:37:15;12.90;99.90
9095;DHT22;4583;49.796;9.902;2022-12-31T21:47:16;12.90;99.90
9095;DHT22;4583;49.796;9.902;2022-12-31T21:57:48;12.80;99.90
9095;DHT22;4583;49.796;9.902;2022-12-31T22:08:10;12.50;99.90
9095;DHT22;4583;49.796;9.902;2022-12-31T22:18:13;12.50;99.90
9095;DHT22;4583;49.796;9.902;2022-12-31T22:28:15;12.40;99.90
9095;DHT22;4583;49.796;9.902;2022-12-31T22:38:36;12.20;99.90
9095;DHT22;4583;49.796;9.902;2022-12-31T22:48:39;12.10;99.90
9095;DHT22;4583;49.796;9.902;2022-12-31T22:58:41;12.00;99.90
9095;DHT22;4583;49.796;9.902;2022-12-31T23:08:43;11.80;99.90
9095;DHT22;4583;49.796;9.902;2022-12-31T23:19:03;11.60;99.90
9095;DHT22;4583;49.796;9.902;2022-12-31T23:29:24;11.60;99.90
9095;DHT22;4583;49.796;9.902;2022-12-31T23:39:26;11.60;99.90
9095;DHT22;4583;49.796;9.902;2022-12-31T23:52:12;11.50;99.90
